createdAt,value
2023-09-10T00:01:55.389Z,97481.53
2023-09-10T00:04:21.751Z,97482.59
2023-09-10T00:06:48.053Z,97484.56
2023-09-10T00:09:14.584Z,97480.72
2023-09-10T00:11:40.865Z,97479.91
2023-09-10T00:14:07.231Z,97480.50
2023-09-10T00:16:34.062Z,97487.03
2023-09-10T00:19:00.417Z,97483.25
2023-09-10T00:21:26.723Z,97480.00
2023-09-10T00:23:53.093Z,97477.91
2023-09-10T00:26:19.441Z,97480.13
2023-09-10T00:28:45.822Z,97480.91
2023-09-10T00:31:12.386Z,97476.50
2023-09-10T00:33:38.706Z,97476.28
2023-09-10T00:36:05.012Z,97476.97
2023-09-10T00:38:31.496Z,97474.16
2023-09-10T00:40:57.872Z,97474.75
2023-09-10T00:43:24.238Z,97472.41
2023-09-10T00:45:50.783Z,97472.84
2023-09-10T00:48:17.107Z,97470.41
2023-09-10T00:50:43.493Z,97467.16
2023-09-10T00:53:09.923Z,97466.56
2023-09-10T00:55:36.323Z,97461.41
2023-09-10T00:58:02.711Z,97461.41
2023-09-10T01:00:29.256Z,97457.34
2023-09-10T01:02:55.717Z,97465.75
2023-09-10T01:05:22.101Z,97461.88
2023-09-10T01:07:48.613Z,97461.19
2023-09-10T01:10:14.942Z,97460.25
2023-09-10T01:12:41.344Z,97462.94
2023-09-10T01:15:07.880Z,97456.94
2023-09-10T01:17:34.350Z,97471.25
2023-09-10T01:20:00.968Z,97470.22
2023-09-10T01:22:27.531Z,97463.88
2023-09-10T01:24:53.850Z,97462.47
2023-09-10T01:27:20.208Z,97469.16
2023-09-10T01:29:46.727Z,97469.25
2023-09-10T01:32:13.098Z,97472.41
2023-09-10T01:34:39.460Z,97472.53
2023-09-10T01:37:05.898Z,97479.66
2023-09-10T01:39:32.239Z,97473.56
2023-09-10T01:41:58.582Z,97484.09
2023-09-10T01:44:24.929Z,97485.97
2023-09-10T01:46:51.334Z,97485.03
2023-09-10T01:49:17.714Z,97477.09
2023-09-10T01:51:44.084Z,97479.38
2023-09-10T01:54:10.498Z,97472.75
2023-09-10T01:56:36.779Z,97476.47
2023-09-10T01:59:03.286Z,97478.84
2023-09-10T02:01:29.668Z,97477.66
2023-09-10T02:03:56.215Z,97485.13
2023-09-10T02:06:22.971Z,97487.84
2023-09-10T02:08:49.257Z,97489.47
2023-09-10T02:11:15.601Z,97490.97
2023-09-10T02:13:41.977Z,97486.53
2023-09-10T02:16:08.313Z,97485.03
2023-09-10T02:18:34.627Z,97485.50
2023-09-10T02:21:01.030Z,97489.56
2023-09-10T02:23:27.330Z,97494.94
2023-09-10T02:25:53.775Z,97497.72
2023-09-10T02:28:20.391Z,97496.00
2023-09-10T02:30:46.831Z,97497.66
2023-09-10T02:33:13.203Z,97498.56
2023-09-10T02:35:44.470Z,97499.25
2023-09-10T02:38:10.800Z,97498.94
2023-09-10T02:40:37.158Z,97500.56
2023-09-10T02:43:03.927Z,97494.25
2023-09-10T02:45:30.262Z,97487.22
2023-09-10T02:47:56.702Z,97484.97
2023-09-10T02:50:23.085Z,97489.34
2023-09-10T02:52:49.377Z,97489.91
2023-09-10T02:55:15.675Z,97495.31
2023-09-10T02:57:42.115Z,97499.16
2023-09-10T03:00:08.435Z,97503.84
2023-09-10T03:02:34.940Z,97508.84
2023-09-10T03:05:01.611Z,97504.22
2023-09-10T03:07:27.924Z,97498.94
2023-09-10T03:09:54.217Z,97503.38
2023-09-10T03:12:20.618Z,97502.78
2023-09-10T03:14:46.939Z,97496.56
2023-09-10T03:17:13.270Z,97502.38
2023-09-10T03:19:39.674Z,97501.00
2023-09-10T03:22:05.964Z,97508.22
2023-09-10T03:24:32.243Z,97499.72
2023-09-10T03:26:58.652Z,97499.88
2023-09-10T03:29:25.043Z,97506.88
2023-09-10T03:31:51.396Z,97501.97
2023-09-10T03:34:17.999Z,97506.56
2023-09-10T03:36:44.383Z,97506.44
2023-09-10T03:39:10.685Z,97501.84
2023-09-10T03:41:37.084Z,97498.56
2023-09-10T03:44:03.494Z,97505.44
2023-09-10T03:46:29.916Z,97505.00
2023-09-10T03:48:56.635Z,97507.22
2023-09-10T03:51:22.969Z,97497.78
2023-09-10T03:53:49.277Z,97497.50
2023-09-10T03:56:15.783Z,97500.56
2023-09-10T03:58:42.383Z,97508.97
2023-09-10T04:01:09.045Z,97505.50
2023-09-10T04:03:35.635Z,97507.13
2023-09-10T04:06:02.032Z,97502.16
2023-09-10T04:08:28.350Z,97499.94
2023-09-10T04:10:54.778Z,97500.53
2023-09-10T04:13:41.161Z,97505.91
2023-09-10T04:16:16.970Z,97512.13
2023-09-10T04:18:46.803Z,97518.53
2023-09-10T04:21:13.968Z,97513.97
2023-09-10T04:23:40.261Z,97510.81
2023-09-10T04:26:06.599Z,97519.16
2023-09-10T04:28:32.982Z,97520.72
2023-09-10T04:30:59.320Z,97525.81
2023-09-10T04:33:25.742Z,97512.84
2023-09-10T04:35:52.137Z,97513.19
2023-09-10T04:38:18.509Z,97514.81
2023-09-10T04:40:44.831Z,97519.66
2023-09-10T04:43:11.144Z,97525.50
2023-09-10T04:45:38.356Z,97523.44
2023-09-10T04:48:04.700Z,97527.50
2023-09-10T04:50:31.053Z,97527.81
2023-09-10T04:52:57.593Z,97544.03
2023-09-10T04:55:23.945Z,97545.38
2023-09-10T04:57:50.269Z,97549.47
2023-09-10T05:00:16.579Z,97542.38
2023-09-10T05:02:44.747Z,97541.84
2023-09-10T05:05:13.431Z,97543.09
2023-09-10T05:07:39.786Z,97534.66
2023-09-10T05:10:06.139Z,97546.84
2023-09-10T05:12:32.514Z,97542.44
2023-09-10T05:14:58.982Z,97539.31
2023-09-10T05:17:25.459Z,97544.59
2023-09-10T05:19:51.820Z,97549.22
2023-09-10T05:22:18.164Z,97551.00
2023-09-10T05:24:44.472Z,97548.38
2023-09-10T05:27:10.828Z,97549.53
2023-09-10T05:29:37.782Z,97561.25
2023-09-10T05:32:04.148Z,97553.91
2023-09-10T05:34:30.516Z,97557.50
2023-09-10T05:36:56.940Z,97554.25
2023-09-10T05:39:23.261Z,97556.16
2023-09-10T05:41:49.616Z,97564.81
2023-09-10T05:44:16.005Z,97570.09
2023-09-10T05:46:42.343Z,97581.16
2023-09-10T05:49:08.706Z,97568.84
2023-09-10T05:51:35.070Z,97581.09
2023-09-10T05:54:01.385Z,97575.59
2023-09-10T05:56:27.743Z,97585.63
2023-09-10T05:58:54.436Z,97577.72
2023-09-10T06:01:20.806Z,97589.88
2023-09-10T06:03:47.229Z,97586.44
2023-09-10T06:06:13.619Z,97591.06
2023-09-10T06:08:40.337Z,97583.53
2023-09-10T06:11:06.904Z,97587.69
2023-09-10T06:13:33.476Z,97590.88
2023-09-10T06:15:59.792Z,97596.81
2023-09-10T06:18:26.151Z,97592.03
2023-09-10T06:20:52.449Z,97595.25
2023-09-10T06:23:18.791Z,97590.84
2023-09-10T06:25:45.191Z,97594.09
2023-09-10T06:28:11.513Z,97593.69
2023-09-10T06:30:37.819Z,97593.28
2023-09-10T06:33:05.769Z,97587.22
2023-09-10T06:35:32.193Z,97597.41
2023-09-10T06:37:58.541Z,97601.25
2023-09-10T06:40:25.013Z,97603.97
2023-09-10T06:42:51.322Z,97600.41
2023-09-10T06:45:17.630Z,97609.56
2023-09-10T06:47:44.006Z,97609.59
2023-09-10T06:50:10.411Z,97606.44
2023-09-10T06:52:36.752Z,97611.25
2023-09-10T06:55:03.106Z,97606.38
2023-09-10T06:57:29.583Z,97610.53
2023-09-10T06:59:55.880Z,97610.94
2023-09-10T07:02:22.222Z,97614.28
2023-09-10T07:04:48.931Z,97600.50
2023-09-10T07:07:15.354Z,97607.38
2023-09-10T07:09:41.699Z,97602.31
2023-09-10T07:12:08.119Z,97601.94
2023-09-10T07:14:34.472Z,97606.25
2023-09-10T07:17:00.847Z,97602.88
2023-09-10T07:19:27.190Z,97606.16
2023-09-10T07:21:53.477Z,97610.53
2023-09-10T07:24:19.789Z,97604.25
2023-09-10T07:26:46.136Z,97609.16
2023-09-10T07:29:12.460Z,97608.97
2023-09-10T07:31:38.871Z,97611.91
2023-09-10T07:34:05.262Z,97604.81
2023-09-10T07:36:31.729Z,97609.91
2023-09-10T07:38:58.124Z,97607.00
2023-09-10T07:41:24.434Z,97607.75
2023-09-10T07:43:50.852Z,97607.34
2023-09-10T07:46:17.227Z,97609.31
2023-09-10T07:48:43.629Z,97617.09
2023-09-10T07:51:09.939Z,97615.13
2023-09-10T07:53:36.276Z,97614.06
2023-09-10T07:56:02.620Z,97616.00
2023-09-10T07:58:28.936Z,97614.34
2023-09-10T08:00:55.306Z,97611.78
2023-09-10T08:03:22.024Z,97614.25
2023-09-10T08:05:48.376Z,97619.53
2023-09-10T08:08:15.391Z,97607.81
2023-09-10T08:10:41.733Z,97613.06
2023-09-10T08:13:08.024Z,97608.84
2023-09-10T08:15:34.416Z,97616.53
2023-09-10T08:18:01.032Z,97606.28
2023-09-10T08:20:27.574Z,97600.44
2023-09-10T08:22:53.934Z,97607.25
2023-09-10T08:25:20.263Z,97604.59
2023-09-10T08:27:46.561Z,97612.75
2023-09-10T08:30:12.928Z,97610.00
2023-09-10T08:32:39.476Z,97609.56
2023-09-10T08:35:05.947Z,97610.72
2023-09-10T08:37:32.307Z,97610.22
2023-09-10T08:39:58.765Z,97608.41
2023-09-10T08:42:25.191Z,97614.22
2023-09-10T08:44:51.535Z,97606.41
2023-09-10T08:47:17.985Z,97600.66
2023-09-10T08:49:44.302Z,97604.59
2023-09-10T08:52:10.654Z,97600.84
2023-09-10T08:54:37.348Z,97602.34
2023-09-10T08:57:03.626Z,97604.25
2023-09-10T08:59:29.996Z,97605.59
2023-09-10T09:01:56.440Z,97591.91
2023-09-10T09:04:22.785Z,97599.69
2023-09-10T09:06:49.149Z,97600.38
2023-09-10T09:09:15.491Z,97593.69
2023-09-10T09:11:41.810Z,97593.72
2023-09-10T09:14:08.186Z,97590.00
2023-09-10T09:16:34.769Z,97587.63
2023-09-10T09:19:01.185Z,97584.63
2023-09-10T09:21:27.526Z,97584.94
2023-09-10T09:23:54.057Z,97583.31
2023-09-10T09:26:20.525Z,97573.22
2023-09-10T09:28:47.000Z,97582.53
2023-09-10T09:31:13.567Z,97575.28
2023-09-10T09:33:39.832Z,97577.25
2023-09-10T09:36:06.212Z,97573.81
2023-09-10T09:38:32.745Z,97585.31
2023-09-10T09:41:01.171Z,97574.88
2023-09-10T09:43:28.524Z,97566.59
2023-09-10T09:45:55.286Z,97570.22
2023-09-10T09:48:21.696Z,97558.22
2023-09-10T09:50:48.110Z,97553.84
2023-09-10T09:53:14.509Z,97552.63
2023-09-10T09:55:40.837Z,97554.09
2023-09-10T09:58:07.159Z,97560.59
2023-09-10T10:00:33.552Z,97555.69
2023-09-10T10:02:59.941Z,97558.78
2023-09-10T10:05:26.527Z,97554.69
2023-09-10T10:07:53.524Z,97550.38
2023-09-10T10:10:19.912Z,97549.44
2023-09-10T10:12:46.249Z,97552.59
2023-09-10T10:15:12.572Z,97548.38
2023-09-10T10:17:38.948Z,97541.72
2023-09-10T10:20:05.610Z,97549.94
2023-09-10T10:22:32.055Z,97548.16
2023-09-10T10:24:58.446Z,97551.88
2023-09-10T10:27:24.825Z,97545.13
2023-09-10T10:29:51.149Z,97550.06
2023-09-10T10:32:17.622Z,97541.72
2023-09-10T10:34:44.079Z,97546.03
2023-09-10T10:37:10.580Z,97545.94
2023-09-10T10:39:36.895Z,97549.06
2023-09-10T10:42:03.284Z,97534.94
2023-09-10T10:44:29.674Z,97538.00
2023-09-10T10:46:56.049Z,97532.63
2023-09-10T10:49:22.432Z,97542.19
2023-09-10T10:51:55.848Z,97544.19
2023-09-10T10:54:23.269Z,97537.06
2023-09-10T10:56:49.616Z,97539.38
2023-09-10T10:59:15.929Z,97531.88
2023-09-10T11:01:42.315Z,97529.19
2023-09-10T11:04:08.692Z,97527.81
2023-09-10T11:06:34.997Z,97524.78
2023-09-10T11:09:01.298Z,97527.72
2023-09-10T11:11:27.825Z,97527.13
2023-09-10T11:13:54.175Z,97516.94
2023-09-10T11:16:20.582Z,97515.75
2023-09-10T11:18:47.021Z,97517.47
2023-09-10T11:21:13.361Z,97511.31
2023-09-10T11:23:40.086Z,97513.13
2023-09-10T11:26:06.742Z,97510.28
2023-09-10T11:28:33.127Z,97509.22
2023-09-10T11:30:59.473Z,97492.53
2023-09-10T11:33:25.815Z,97493.69
2023-09-10T11:35:52.119Z,97484.34
2023-09-10T11:38:18.480Z,97486.78
2023-09-10T11:40:44.892Z,97484.56
2023-09-10T11:43:11.191Z,97489.31
2023-09-10T11:45:37.592Z,97484.91
2023-09-10T11:48:04.039Z,97478.91
2023-09-10T11:50:30.399Z,97470.75
2023-09-10T11:52:56.815Z,97472.31
2023-09-10T11:55:23.155Z,97478.72
2023-09-10T11:57:49.533Z,97471.47
2023-09-10T12:00:15.855Z,97470.16
2023-09-10T12:02:42.392Z,97471.34
2023-09-10T12:05:08.831Z,97459.31
2023-09-10T12:07:35.256Z,97457.44
2023-09-10T12:10:01.589Z,97457.19
2023-09-10T12:12:30.768Z,97466.72
2023-09-10T12:14:57.100Z,97460.38
2023-09-10T12:17:23.473Z,97455.06
2023-09-10T12:19:49.795Z,97450.31
2023-09-10T12:22:16.172Z,97447.28
2023-09-10T12:24:42.495Z,97441.28
2023-09-10T12:27:08.793Z,97446.22
2023-09-10T12:29:35.232Z,97453.75
2023-09-10T12:32:01.610Z,97442.00
2023-09-10T12:34:28.099Z,97445.50
2023-09-10T12:36:54.431Z,97449.97
2023-09-10T12:39:20.883Z,97433.50
2023-09-10T12:41:47.212Z,97431.72
2023-09-10T12:44:13.554Z,97435.59
2023-09-10T12:46:40.015Z,97431.56
2023-09-10T12:49:06.349Z,97432.19
2023-09-10T12:51:32.691Z,97431.16
2023-09-10T12:53:59.054Z,97423.19
2023-09-10T12:56:25.371Z,97424.47
2023-09-10T12:58:51.720Z,97415.03
2023-09-10T13:01:18.130Z,97413.50
2023-09-10T13:03:44.812Z,97415.72
2023-09-10T13:06:11.536Z,97405.50
2023-09-10T13:08:38.040Z,97413.88
2023-09-10T13:11:04.362Z,97406.59
2023-09-10T13:13:30.720Z,97405.16
2023-09-10T13:15:57.333Z,97413.59
2023-09-10T13:18:23.649Z,97406.00
2023-09-10T13:20:51.202Z,97403.53
2023-09-10T13:23:17.638Z,97402.13
2023-09-10T13:25:44.052Z,97399.94
2023-09-10T13:28:10.356Z,97398.75
2023-09-10T13:30:39.245Z,97399.09
2023-09-10T13:33:05.740Z,97395.47
2023-09-10T13:35:32.157Z,97393.63
2023-09-10T13:37:58.560Z,97387.47
2023-09-10T13:40:24.859Z,97395.03
2023-09-10T13:42:51.234Z,97400.97
2023-09-10T13:45:17.539Z,97407.16
2023-09-10T13:47:43.938Z,97397.94
2023-09-10T13:50:10.324Z,97396.66
2023-09-10T13:52:36.711Z,97394.66
2023-09-10T13:55:03.018Z,97389.28
2023-09-10T13:57:29.405Z,97393.25
2023-09-10T13:59:55.739Z,97376.03
2023-09-10T14:02:22.211Z,97382.84
2023-09-10T14:04:48.731Z,97377.09
2023-09-10T14:07:15.672Z,97368.47
2023-09-10T14:09:41.946Z,97368.09
2023-09-10T14:12:08.299Z,97367.41
2023-09-10T14:14:34.922Z,97357.69
2023-09-10T14:17:01.305Z,97357.69
2023-09-10T14:19:27.627Z,97357.69
2023-09-10T14:21:54.112Z,97349.97
2023-09-10T14:24:20.390Z,97349.84
2023-09-10T14:26:46.802Z,97347.28
2023-09-10T14:29:13.310Z,97345.91
2023-09-10T14:31:39.652Z,97344.78
2023-09-10T14:34:06.040Z,97342.31
2023-09-10T14:36:32.405Z,97338.56
2023-09-10T14:38:58.725Z,97333.97
2023-09-10T14:41:25.073Z,97334.06
2023-09-10T14:43:51.654Z,97332.59
2023-09-10T14:46:18.009Z,97340.53
2023-09-10T14:48:44.417Z,97338.38
2023-09-10T14:51:10.731Z,97334.38
2023-09-10T14:53:37.117Z,97331.03
2023-09-10T14:56:03.632Z,97329.78
2023-09-10T14:58:29.940Z,97336.56
2023-09-10T15:00:56.278Z,97331.31
2023-09-10T15:03:22.853Z,97327.09
2023-09-10T15:05:49.290Z,97324.63
2023-09-10T15:08:15.699Z,97324.94
2023-09-10T15:10:42.098Z,97328.50
2023-09-10T15:13:08.446Z,97328.50
2023-09-10T15:15:34.930Z,97317.84
2023-09-10T15:18:01.380Z,97324.75
2023-09-10T15:20:27.761Z,97320.03
2023-09-10T15:22:54.154Z,97321.63
2023-09-10T15:25:20.496Z,97317.22
2023-09-10T15:27:46.925Z,97319.97
2023-09-10T15:30:13.265Z,97317.16
2023-09-10T15:32:39.711Z,97310.47
2023-09-10T15:35:06.163Z,97315.63
2023-09-10T15:37:32.641Z,97318.22
2023-09-10T15:39:59.024Z,97309.56
2023-09-10T15:42:25.337Z,97306.28
2023-09-10T15:44:51.801Z,97311.19
2023-09-10T15:47:18.255Z,97300.25
2023-09-10T15:49:44.674Z,97306.75
2023-09-10T15:52:12.237Z,97312.38
2023-09-10T15:54:38.624Z,97305.50
2023-09-10T15:57:04.944Z,97306.22
2023-09-10T15:59:31.685Z,97310.84
2023-09-10T16:01:58.062Z,97309.09
2023-09-10T16:04:24.381Z,97311.91
2023-09-10T16:06:50.862Z,97311.78
2023-09-10T16:09:18.387Z,97313.34
2023-09-10T16:11:44.835Z,97306.66
2023-09-10T16:14:11.186Z,97312.63
2023-09-10T16:16:38.815Z,97312.44
2023-09-10T16:19:07.927Z,97311.47
2023-09-10T16:21:34.508Z,97310.38
2023-09-10T16:24:00.882Z,97309.69
2023-09-10T16:26:27.251Z,97307.28
2023-09-10T16:28:53.566Z,97308.16
2023-09-10T16:31:20.010Z,97312.25
2023-09-10T16:33:46.493Z,97306.44
2023-09-10T16:36:12.782Z,97303.03
2023-09-10T16:38:39.198Z,97298.81
2023-09-10T16:41:05.626Z,97301.72
2023-09-10T16:43:32.032Z,97300.72
2023-09-10T16:45:58.358Z,97297.59
2023-09-10T16:48:24.897Z,97297.41
2023-09-10T16:50:51.219Z,97295.53
2023-09-10T16:53:17.582Z,97294.31
2023-09-10T16:55:44.076Z,97302.19
2023-09-10T16:58:10.356Z,97307.16
2023-09-10T17:00:36.704Z,97303.03
2023-09-10T17:03:03.361Z,97306.66
2023-09-10T17:05:29.812Z,97310.50
2023-09-10T17:07:56.198Z,97307.72
2023-09-10T17:10:22.529Z,97307.94
2023-09-10T17:12:48.853Z,97311.19
2023-09-10T17:15:15.275Z,97306.22
2023-09-10T17:17:41.706Z,97304.84
2023-09-10T17:20:08.147Z,97302.66
2023-09-10T17:22:34.496Z,97307.34
2023-09-10T17:25:00.865Z,97303.03
2023-09-10T17:27:27.240Z,97306.31
2023-09-10T17:29:53.555Z,97314.16
2023-09-10T17:32:19.930Z,97315.31
2023-09-10T17:34:46.282Z,97311.31
2023-09-10T17:37:12.638Z,97314.84
2023-09-10T17:39:38.934Z,97318.72
2023-09-10T17:42:05.226Z,97314.44
2023-09-10T17:44:32.002Z,97316.56
2023-09-10T17:46:59.586Z,97320.75
2023-09-10T17:49:25.965Z,97321.97
2023-09-10T17:51:52.307Z,97319.03
2023-09-10T17:54:18.643Z,97322.91
2023-09-10T17:56:45.029Z,97323.16
2023-09-10T17:59:11.456Z,97323.75
2023-09-10T18:01:37.838Z,97325.00
2023-09-10T18:04:04.356Z,97327.91
2023-09-10T18:06:30.842Z,97329.03
2023-09-10T18:08:57.162Z,97328.47
2023-09-10T18:11:23.699Z,97323.38
2023-09-10T18:13:50.001Z,97328.69
2023-09-10T18:16:16.381Z,97333.06
2023-09-10T18:18:42.842Z,97339.03
2023-09-10T18:21:09.200Z,97332.47
2023-09-10T18:23:35.559Z,97343.00
2023-09-10T18:26:02.136Z,97342.53
2023-09-10T18:28:28.444Z,97351.88
2023-09-10T18:30:54.745Z,97356.94
2023-09-10T18:33:22.318Z,97353.19
2023-09-10T18:35:48.864Z,97350.78
2023-09-10T18:38:15.265Z,97353.34
2023-09-10T18:40:41.751Z,97357.28
2023-09-10T18:43:08.108Z,97353.50
2023-09-10T18:45:34.440Z,97367.66
2023-09-10T18:48:01.018Z,97372.50
2023-09-10T18:50:27.500Z,97361.97
2023-09-10T18:52:53.859Z,97362.31
2023-09-10T18:55:20.208Z,97362.41
2023-09-10T18:57:46.565Z,97369.78
2023-09-10T19:00:12.950Z,97367.88
2023-09-10T19:02:39.334Z,97366.84
2023-09-10T19:05:05.849Z,97368.69
2023-09-10T19:07:32.155Z,97364.97
2023-09-10T19:09:58.483Z,97363.53
2023-09-10T19:12:24.830Z,97372.72
2023-09-10T19:14:51.484Z,97364.84
2023-09-10T19:17:17.861Z,97364.03
2023-09-10T19:19:44.251Z,97374.47
2023-09-10T19:22:10.652Z,97364.03
2023-09-10T19:24:37.046Z,97366.63
2023-09-10T19:27:03.408Z,97367.56
2023-09-10T19:29:31.340Z,97368.44
2023-09-10T19:31:59.755Z,97372.47
2023-09-10T19:34:26.097Z,97364.72
2023-09-10T19:36:52.420Z,97368.91
2023-09-10T19:39:18.712Z,97360.69
2023-09-10T19:41:45.055Z,97372.72
2023-09-10T19:44:11.458Z,97373.28
2023-09-10T19:46:37.979Z,97372.28
2023-09-10T19:49:04.370Z,97364.78
2023-09-10T19:51:30.678Z,97369.66
2023-09-10T19:53:57.086Z,97366.72
2023-09-10T19:56:26.736Z,97378.78
2023-09-10T19:58:53.996Z,97363.78
2023-09-10T20:01:20.356Z,97370.66
2023-09-10T20:03:46.668Z,97374.31
2023-09-10T20:06:12.970Z,97369.03
2023-09-10T20:08:39.448Z,97372.44
2023-09-10T20:11:05.841Z,97372.88
2023-09-10T20:13:32.125Z,97370.38
2023-09-10T20:15:58.519Z,97380.66
2023-09-10T20:18:24.883Z,97370.59
2023-09-10T20:20:51.236Z,97374.94
2023-09-10T20:23:17.585Z,97375.75
2023-09-10T20:25:44.012Z,97377.94
2023-09-10T20:28:10.319Z,97377.50
2023-09-10T20:30:36.741Z,97376.50
2023-09-10T20:33:03.210Z,97380.47
2023-09-10T20:35:29.704Z,97385.09
2023-09-10T20:37:56.087Z,97386.50
2023-09-10T20:40:22.430Z,97390.63
2023-09-10T20:42:48.733Z,97392.50
2023-09-10T20:45:15.069Z,97385.78
2023-09-10T20:47:41.521Z,97388.38
2023-09-10T20:50:07.947Z,97383.44
2023-09-10T20:52:34.340Z,97393.03
2023-09-10T20:55:00.695Z,97387.03
2023-09-10T20:57:27.272Z,97383.81
2023-09-10T20:59:53.644Z,97379.63
2023-09-10T21:02:20.054Z,97389.19
2023-09-10T21:04:46.525Z,97379.38
2023-09-10T21:07:13.237Z,97385.59
2023-09-10T21:09:39.692Z,97382.66
2023-09-10T21:12:06.019Z,97384.50
2023-09-10T21:14:32.507Z,97390.47
2023-09-10T21:16:59.031Z,97386.25
2023-09-10T21:19:27.231Z,97377.63
2023-09-10T21:21:53.520Z,97387.91
2023-09-10T21:24:19.907Z,97378.19
2023-09-10T21:26:46.216Z,97380.00
2023-09-10T21:29:12.659Z,97383.44
2023-09-10T21:31:39.080Z,97381.41
2023-09-10T21:34:05.407Z,97386.66
2023-09-10T21:36:31.723Z,97387.09
2023-09-10T21:38:58.120Z,97382.44
2023-09-10T21:41:24.496Z,97385.22
2023-09-10T21:43:50.800Z,97385.78
2023-09-10T21:46:17.206Z,97392.25
2023-09-10T21:48:43.893Z,97387.91
2023-09-10T21:51:10.470Z,97378.19
2023-09-10T21:53:36.825Z,97373.13
2023-09-10T21:56:03.145Z,97377.16
2023-09-10T21:58:29.643Z,97381.97
2023-09-10T22:00:56.051Z,97383.63
2023-09-10T22:03:22.370Z,97382.34
2023-09-10T22:05:48.814Z,97385.81
2023-09-10T22:08:16.317Z,97379.31
2023-09-10T22:10:42.639Z,97384.41
2023-09-10T22:13:08.970Z,97384.53
2023-09-10T22:15:35.302Z,97378.44
2023-09-10T22:18:01.799Z,97374.06
2023-09-10T22:20:28.353Z,97368.09
2023-09-10T22:22:54.667Z,97372.47
2023-09-10T22:25:20.974Z,97373.31
2023-09-10T22:27:47.485Z,97363.66
2023-09-10T22:30:13.826Z,97363.91
2023-09-10T22:32:40.302Z,97365.66
2023-09-10T22:35:06.917Z,97372.84
2023-09-10T22:37:33.229Z,97372.03
2023-09-10T22:39:59.521Z,97370.28
2023-09-10T22:42:25.831Z,97373.75
2023-09-10T22:44:52.332Z,97366.94
2023-09-10T22:47:18.740Z,97378.25
2023-09-10T22:49:46.221Z,97365.69
2023-09-10T22:52:12.609Z,97381.53
2023-09-10T22:54:38.917Z,97371.81
2023-09-10T22:57:05.224Z,97373.59
2023-09-10T22:59:31.794Z,97374.88
2023-09-10T23:01:58.137Z,97371.44
2023-09-10T23:04:24.622Z,97377.19
2023-09-10T23:06:51.012Z,97377.06
2023-09-10T23:09:17.380Z,97379.16
2023-09-10T23:11:43.691Z,97371.13
2023-09-10T23:14:10.126Z,97373.50
2023-09-10T23:16:36.453Z,97360.09
2023-09-10T23:19:02.763Z,97360.97
2023-09-10T23:21:29.107Z,97362.16
2023-09-10T23:23:55.473Z,97369.81
2023-09-10T23:26:21.833Z,97364.47
2023-09-10T23:28:48.222Z,97367.63
2023-09-10T23:31:14.529Z,97370.78
2023-09-10T23:33:40.948Z,97369.03
2023-09-10T23:36:07.554Z,97367.13
2023-09-10T23:38:33.858Z,97362.78
2023-09-10T23:41:00.196Z,97366.66
2023-09-10T23:43:26.588Z,97360.91
2023-09-10T23:45:52.924Z,97361.34
2023-09-10T23:48:19.353Z,97371.53
2023-09-10T23:50:45.897Z,97359.53
2023-09-10T23:53:12.350Z,97359.31
2023-09-10T23:55:38.636Z,97351.53
2023-09-10T23:58:04.983Z,97360.25
